Apiuna, Brazil
Current Conditions -  °F | °C
As of 8:00 AM on Friday 31 Oct 2014 (Local Time) from SBNF Reporting Station
Broken Clouds Broken Clouds  
Wind Chill: 73°   Ceiling: 10000
Heat Index: 73°   Visibility: 6mi
Dew Point: 66°   Wind: 5mph
Humidity: 78%   Direction: 170°S
Pressure: 29.88"   Gusts: NA
Location:  27.04°S, 49.39°W
Report Text: SBNF 311000Z 17004KT 9999 SCT025 BKN100 23/19 Q1012
Loading
Personal Weather Stations






























Interactive Weather Map
Tropical Storm Tracking
New forecast layout! Learn more

10-Day Weather Forecast

Advertisements
Track Severe Weather on mobile